Terminal Aerodrome Forecast
Issued by NWS Flagstaff, AZ

Home | Current Version | Previous Version | Text Only | Print | Product List | Glossary On
Versions: 1 2 3 4 5 6 7 8 9 10 11 12 13 14 15 16
000
FTUS45 KFGZ 270538
TAFFLG
TAF
KFLG 270538Z 2706/2806 22011G20KT P6SM BKN030 BKN150
     FM270900 22015G25KT P6SM BKN025
     FM271700 22022G30KT 2SM -SHSN OVC018
      TEMPO 2720/2724 1SM -SN OVC009
     FM280000 23016G25KT 1/2SM SN VV005=

USA.gov is the U.S. government's official web portal to all federal, state and local government web resources and services.